Willow Street, Pennsylvania
Current Conditions -  °F | °C
As of 9:53 PM on Friday 21 Nov 2014 (Local Time) from KLNS Reporting Station
Clear Clear  
Wind Chill: 17°   Ceiling: Unl
Heat Index: 23°   Visibility: 10mi
Dew Point: 10°   Wind: 5mph
Humidity: 58%   Direction: 280°W
Pressure: 30.51"   Gusts: NA
Location:  39.98°N, 76.27°W
Report Text: KLNS 220253Z 28004KT 10SM CLR M05/M12 A3051 RMK AO2 SLP337 T10501122 50004
Loading
Personal Weather Stations






























Interactive Weather Map New forecast layout! Learn more

10-Day Weather Forecast

Advertisements
Track Severe Weather on mobile